Time;durP1;ratioP1;P1;durP2;ratioP2;P2;SDS_P1;SDS_P2;PMS_P1;PMS_P2;Temp;Humidity;BMP_temperature;BMP_pressure;BME280_temperature;BME280_humidity;BME280_pressure;Samples;Min_cycle;Max_cycle;Signal;HPM_P1;HPM_P2
2021/06/07 00:01:57;;;;;;;4.72;3.45;;;;;;;23.37;43.70;99111.03;1773489;80;22109;-36
2021/06/07 00:04:25;;;;;;;5.33;3.67;;;;;;;23.36;43.71;99109.33;1762298;80;21102;-36
2021/06/07 00:06:51;;;;;;;5.75;3.65;;;;;;;23.36;43.68;99099.93;1719481;81;21001;-36
2021/06/07 00:09:20;;;;;;;6.58;3.40;;;;;;;23.34;43.68;99099.23;1745882;80;21013;-37
2021/06/07 00:11:52;;;;;;;7.47;3.52;;;;;;;23.33;43.67;99093.54;1724305;82;21000;-37
2021/06/07 00:14:20;;;;;;;4.85;3.17;;;;;;;23.32;43.65;99089.15;1753105;80;21066;-37
2021/06/07 00:16:48;;;;;;;5.00;2.83;;;;;;;23.30;43.71;99093.83;1727117;80;21248;-37
2021/06/07 00:19:18;;;;;;;4.20;2.90;;;;;;;23.29;43.62;99090.78;1725132;81;22156;-37
2021/06/07 00:21:47;;;;;;;3.02;2.72;;;;;;;23.28;43.62;99099.80;1747074;80;21094;-37
2021/06/07 00:24:16;;;;;;;4.95;2.80;;;;;;;23.27;43.58;99101.33;1748974;80;21014;-37
2021/06/07 00:26:45;;;;;;;6.10;3.00;;;;;;;23.25;43.72;99101.47;1717856;81;21061;-37
2021/06/07 00:29:13;;;;;;;5.10;2.52;;;;;;;23.26;43.80;99107.67;1772329;80;21611;-37
2021/06/07 00:31:40;;;;;;;3.42;2.27;;;;;;;23.24;43.76;99106.98;1754865;80;22181;-37
2021/06/07 00:34:07;;;;;;;3.83;2.75;;;;;;;23.22;43.74;99107.12;1733650;81;21047;-37
2021/06/07 00:36:35;;;;;;;4.45;2.42;;;;;;;23.21;43.57;99098.70;1770962;79;21104;-37
2021/06/07 00:39:13;;;;;;;2.25;2.10;;;;;;;23.19;43.46;99104.21;1754146;80;21039;-37
2021/06/07 00:41:42;;;;;;;2.55;2.35;;;;;;;23.17;43.50;99094.63;1752587;80;22188;-37
2021/06/07 00:44:12;;;;;;;6.53;2.20;;;;;;;23.15;43.47;99106.84;1746408;80;20978;-37
2021/06/07 00:46:40;;;;;;;5.67;2.55;;;;;;;23.13;43.39;99106.63;1738088;80;21015;-37
2021/06/07 00:49:08;;;;;;;2.52;2.33;;;;;;;23.11;43.38;99104.58;1743289;80;21043;-37
2021/06/07 00:51:38;;;;;;;3.20;2.77;;;;;;;23.08;43.21;99111.57;1733521;82;21004;-37
2021/06/07 00:54:06;;;;;;;2.60;2.40;;;;;;;23.06;43.28;99106.81;1744199;81;21143;-37
2021/06/07 00:56:34;;;;;;;5.75;2.20;;;;;;;23.03;43.36;99106.59;1713823;81;21113;-37
2021/06/07 00:59:03;;;;;;;3.67;2.20;;;;;;;23.00;43.42;99105.56;1714562;81;21592;-37
2021/06/07 01:01:31;;;;;;;6.35;2.47;;;;;;;22.98;43.38;99113.75;1771893;80;21073;-37
2021/06/07 01:03:59;;;;;;;6.67;2.95;;;;;;;22.97;43.33;99114.73;1744092;80;21628;-37
2021/06/07 01:06:26;;;;;;;5.08;2.85;;;;;;;22.95;43.28;99117.22;1730881;81;21079;-36
2021/06/07 01:08:55;;;;;;;2.75;2.55;;;;;;;22.92;43.24;99114.31;1745710;80;21138;-37
2021/06/07 01:11:22;;;;;;;4.30;2.83;;;;;;;22.91;43.18;99118.47;1745936;81;21016;-36
2021/06/07 01:13:52;;;;;;;3.00;1.92;;;;;;;22.88;43.42;99116.07;1751222;81;21025;-37
2021/06/07 01:16:20;;;;;;;3.17;1.98;;;;;;;22.87;43.35;99121.94;1743724;81;21184;-36
2021/06/07 01:18:48;;;;;;;3.65;1.82;;;;;;;22.88;43.31;99118.28;1736415;81;21143;-37
2021/06/07 01:21:18;;;;;;;4.05;2.05;;;;;;;22.90;43.33;99118.14;1731400;81;22255;-36
2021/06/07 01:23:47;;;;;;;5.03;1.98;;;;;;;22.90;43.30;99113.61;1709114;81;21057;-37
2021/06/07 01:26:16;;;;;;;2.30;2.10;;;;;;;22.92;43.29;99119.68;1714400;82;21184;-36
2021/06/07 01:28:43;;;;;;;4.92;1.85;;;;;;;22.92;43.36;99112.97;1680890;82;21078;-36
2021/06/07 01:31:11;;;;;;;4.35;1.82;;;;;;;22.95;43.27;99119.40;1744645;81;21130;-36
2021/06/07 01:33:41;;;;;;;2.33;1.87;;;;;;;22.96;43.30;99117.08;1695146;83;21199;-36
2021/06/07 01:36:08;;;;;;;2.20;1.77;;;;;;;22.97;43.32;99121.94;1711394;82;21089;-37
2021/06/07 01:38:35;;;;;;;2.12;1.80;;;;;;;22.98;43.41;99127.17;1752544;81;22185;-36
2021/06/07 01:41:05;;;;;;;3.12;1.62;;;;;;;22.99;43.39;99128.84;1738939;80;22968;-36
2021/06/07 01:43:33;;;;;;;2.40;1.90;;;;;;;23.00;43.44;99131.05;1745846;81;22212;-36
2021/06/07 01:46:00;;;;;;;2.87;1.60;;;;;;;23.00;43.41;99130.55;1722459;80;21046;-36
2021/06/07 01:48:27;;;;;;;1.80;1.70;;;;;;;23.04;43.49;99132.95;1737968;81;21165;-37
2021/06/07 01:50:56;;;;;;;1.55;1.45;;;;;;;23.04;43.53;99136.47;1713643;82;21016;-36
2021/06/07 01:53:25;;;;;;;3.87;1.65;;;;;;;23.06;43.53;99130.97;1722333;82;21153;-37
2021/06/07 01:55:56;;;;;;;3.42;1.75;;;;;;;23.07;43.56;99139.41;1691388;82;21192;-37
2021/06/07 01:58:23;;;;;;;1.90;1.80;;;;;;;23.08;43.53;99134.38;1737614;81;21513;-37
2021/06/07 02:00:59;;;;;;;4.12;1.72;;;;;;;23.09;43.62;99129.38;1723906;82;21691;-37
2021/06/07 02:03:26;;;;;;;2.50;1.82;;;;;;;23.09;43.63;99126.69;1709427;82;21010;-37
2021/06/07 02:05:58;;;;;;;1.80;1.55;;;;;;;23.10;43.56;99122.53;1745595;80;21113;-37
2021/06/07 02:08:29;;;;;;;3.98;1.60;;;;;;;23.12;43.63;99125.08;1731491;81;21154;-37
2021/06/07 02:11:07;;;;;;;1.80;1.70;;;;;;;23.13;43.67;99124.06;1721543;80;21070;-37
2021/06/07 02:13:34;;;;;;;3.05;1.47;;;;;;;23.17;43.71;99125.48;1752014;80;20958;-37
2021/06/07 02:16:11;;;;;;;2.12;1.67;;;;;;;23.18;43.70;99129.84;1722540;80;21953;-37
2021/06/07 02:18:38;;;;;;;2.02;1.60;;;;;;;23.19;43.67;99134.23;1743155;80;21056;-37
2021/06/07 02:21:07;;;;;;;1.80;1.70;;;;;;;23.21;43.66;99134.94;1749468;80;21140;-37
2021/06/07 02:23:34;;;;;;;1.77;1.55;;;;;;;23.22;43.66;99135.30;1709551;82;21076;-37
2021/06/07 02:26:02;;;;;;;1.85;1.60;;;;;;;23.24;43.59;99139.19;1679801;83;21041;-37
2021/06/07 02:28:29;;;;;;;5.40;1.50;;;;;;;23.24;43.60;99138.67;1762591;80;22250;-37
2021/06/07 02:30:56;;;;;;;1.77;1.67;;;;;;;23.26;43.53;99134.52;1757416;80;21113;-37
2021/06/07 02:33:23;;;;;;;1.50;1.40;;;;;;;23.27;43.54;99138.91;1737324;80;22214;-37
2021/06/07 02:35:52;;;;;;;1.80;1.70;;;;;;;23.27;43.52;99137.05;1744814;80;21093;-37
2021/06/07 02:38:19;;;;;;;3.17;1.55;;;;;;;23.27;43.53;99146.45;1763819;80;21050;-37
2021/06/07 02:40:49;;;;;;;2.37;1.70;;;;;;;23.28;43.52;99146.78;1727959;80;21069;-37
2021/06/07 02:43:15;;;;;;;2.05;1.70;;;;;;;23.29;43.50;99147.14;1728126;80;21162;-37
2021/06/07 02:45:42;;;;;;;5.22;1.85;;;;;;;23.28;43.50;99148.13;1730803;82;21917;-37
2021/06/07 02:48:09;;;;;;;2.15;1.67;;;;;;;23.28;43.46;99152.15;1732875;82;21528;-38
2021/06/07 02:50:40;;;;;;;3.33;1.82;;;;;;;23.29;43.46;99155.20;1716200;82;21057;-37
2021/06/07 02:53:07;;;;;;;3.35;1.60;;;;;;;23.30;43.44;99156.03;1724849;82;22217;-37
2021/06/07 02:55:37;;;;;;;2.00;1.70;;;;;;;23.29;43.42;99157.88;1696842;82;21097;-37
2021/06/07 02:58:05;;;;;;;1.80;1.70;;;;;;;23.31;43.40;99154.55;1708313;82;21148;-37
2021/06/07 03:00:36;;;;;;;1.60;1.50;;;;;;;23.31;43.34;99157.23;1751439;80;21271;-37
2021/06/07 03:03:07;;;;;;;3.62;1.80;;;;;;;23.32;43.33;99163.47;1751845;80;21066;-37
2021/06/07 03:05:34;;;;;;;3.47;1.45;;;;;;;23.33;43.28;99156.63;1750213;79;21530;-37
2021/06/07 03:08:02;;;;;;;1.60;1.50;;;;;;;23.35;43.25;99152.42;1753601;80;21039;-38
2021/06/07 03:10:28;;;;;;;1.98;1.50;;;;;;;23.36;43.24;99148.25;1723108;81;22323;-37
2021/06/07 03:12:55;;;;;;;3.45;1.62;;;;;;;23.42;43.14;99148.66;1767532;80;21029;-37
2021/06/07 03:15:23;;;;;;;9.53;1.85;;;;;;;23.49;43.04;99147.12;1749286;80;21084;-37
2021/06/07 03:17:51;;;;;;;3.22;1.50;;;;;;;23.57;42.95;99148.59;1767714;80;21026;-37
2021/06/07 03:20:20;;;;;;;2.33;1.80;;;;;;;23.67;42.75;99147.19;1757309;80;21596;-37
2021/06/07 03:22:46;;;;;;;3.20;1.80;;;;;;;23.76;42.65;99152.20;1746767;80;21132;-38
2021/06/07 03:25:13;;;;;;;2.35;1.57;;;;;;;23.79;42.56;99144.70;1707969;81;21060;-37
2021/06/07 03:27:42;;;;;;;1.45;1.35;;;;;;;23.82;42.52;99136.86;1760970;80;21124;-37
2021/06/07 03:30:09;;;;;;;2.60;1.80;;;;;;;23.83;42.56;99140.73;1770950;80;21534;-37
2021/06/07 03:32:36;;;;;;;2.35;1.70;;;;;;;23.86;42.57;99144.98;1753409;80;21090;-38
2021/06/07 03:35:09;;;;;;;2.12;1.55;;;;;;;23.87;42.56;99142.63;1758952;80;22155;-37
2021/06/07 03:37:37;;;;;;;3.98;1.55;;;;;;;23.89;42.56;99151.41;1750697;80;22222;-37
2021/06/07 03:40:08;;;;;;;2.35;2.00;;;;;;;23.90;42.52;99143.69;1739765;80;21078;-37
2021/06/07 03:42:35;;;;;;;3.40;1.62;;;;;;;23.91;42.55;99146.73;1755811;80;21050;-37
2021/06/07 03:45:04;;;;;;;2.00;1.90;;;;;;;23.91;42.56;99145.39;1729368;82;21499;-38
2021/06/07 03:47:31;;;;;;;4.28;1.70;;;;;;;23.92;42.54;99140.34;1750647;80;21487;-37
2021/06/07 03:49:58;;;;;;;3.62;2.12;;;;;;;23.92;42.58;99143.03;1752215;80;21077;-37
2021/06/07 03:52:25;;;;;;;3.25;1.70;;;;;;;23.93;42.60;99144.73;1695262;82;21050;-38
2021/06/07 03:54:53;;;;;;;1.80;1.57;;;;;;;23.93;42.61;99140.70;1729172;80;21018;-37
2021/06/07 03:57:20;;;;;;;1.95;1.75;;;;;;;23.93;42.60;99147.42;1745729;80;21098;-37
2021/06/07 03:59:46;;;;;;;1.90;1.67;;;;;;;23.94;42.59;99149.13;1748262;80;21100;-37
2021/06/07 04:02:16;;;;;;;2.58;1.92;;;;;;;23.94;42.59;99150.47;1748155;80;21004;-38
2021/06/07 04:04:42;;;;;;;5.67;2.20;;;;;;;23.96;42.54;99144.95;1745271;80;21031;-37
2021/06/07 04:07:10;;;;;;;4.22;2.30;;;;;;;23.96;42.54;99150.33;1722527;81;21045;-37
2021/06/07 04:09:40;;;;;;;2.47;1.90;;;;;;;23.96;42.55;99151.16;1747270;80;22291;-37
2021/06/07 04:12:08;;;;;;;1.80;1.70;;;;;;;23.97;42.54;99154.18;1743039;80;21020;-37
2021/06/07 04:14:35;;;;;;;1.90;1.80;;;;;;;23.97;42.54;99152.84;1749957;80;21039;-37
2021/06/07 04:17:03;;;;;;;2.95;2.08;;;;;;;23.99;42.52;99160.28;1748754;80;21039;-37
2021/06/07 04:19:30;;;;;;;1.85;1.75;;;;;;;23.99;42.52;99161.63;1754216;80;21019;-37
2021/06/07 04:21:57;;;;;;;3.83;2.00;;;;;;;24.00;42.52;99165.98;1750823;80;21086;-37
2021/06/07 04:24:23;;;;;;;5.12;2.60;;;;;;;24.01;42.48;99162.82;1731819;80;21140;-38
2021/06/07 04:26:52;;;;;;;2.27;2.00;;;;;;;24.02;42.54;99163.98;1745190;80;21075;-38
2021/06/07 04:29:18;;;;;;;5.75;2.02;;;;;;;24.03;42.60;99168.38;1750643;80;20992;-39
2021/06/07 04:31:46;;;;;;;4.05;2.60;;;;;;;24.03;42.58;99173.75;1747118;80;21094;-37
2021/06/07 04:34:12;;;;;;;3.62;2.58;;;;;;;24.03;42.63;99167.55;1738334;80;21047;-38
2021/06/07 04:36:39;;;;;;;2.50;2.30;;;;;;;24.05;42.63;99169.08;1744370;80;21373;-38
2021/06/07 04:39:07;;;;;;;5.42;2.62;;;;;;;24.05;42.68;99166.38;1750656;80;21094;-38
2021/06/07 04:41:33;;;;;;;2.70;2.40;;;;;;;24.06;42.66;99161.38;1760827;80;21085;-38
2021/06/07 04:44:01;;;;;;;4.55;2.72;;;;;;;24.09;42.61;99167.80;1737929;80;21528;-38
2021/06/07 04:46:28;;;;;;;4.53;2.30;;;;;;;24.10;42.57;99165.44;1721497;81;21110;-37
2021/06/07 04:48:55;;;;;;;4.53;2.37;;;;;;;24.15;42.59;99169.54;1748593;80;22602;-38
2021/06/07 04:51:21;;;;;;;4.00;2.50;;;;;;;24.19;42.56;99166.89;1752522;80;21114;-37
2021/06/07 04:53:48;;;;;;;2.80;2.25;;;;;;;24.22;42.58;99170.13;1753356;80;21129;-39
2021/06/07 04:56:14;;;;;;;4.17;2.60;;;;;;;24.24;42.62;99164.59;1717801;81;21047;-36
2021/06/07 04:58:42;;;;;;;3.27;2.45;;;;;;;24.26;42.61;99175.56;1754025;80;21082;-38
2021/06/07 05:01:09;;;;;;;3.42;2.50;;;;;;;24.26;42.68;99178.77;1737239;81;22111;-39
2021/06/07 05:03:36;;;;;;;3.87;2.60;;;;;;;24.26;42.66;99182.29;1720156;81;21050;-37
2021/06/07 05:06:06;;;;;;;3.75;3.45;;;;;;;24.27;42.88;99188.50;1699919;82;21452;-38
2021/06/07 05:08:33;;;;;;;5.00;3.00;;;;;;;24.21;43.11;99188.61;1675292;84;21593;-37
2021/06/07 05:10:59;;;;;;;4.72;3.10;;;;;;;24.13;43.25;99194.38;1712944;82;21117;-37
2021/06/07 05:13:26;;;;;;;4.97;2.50;;;;;;;24.03;43.43;99188.54;1709501;82;21186;-38
2021/06/07 05:15:53;;;;;;;5.45;2.70;;;;;;;23.97;43.51;99181.56;1676095;82;21512;-37
2021/06/07 05:18:19;;;;;;;3.37;3.00;;;;;;;23.97;43.65;99183.73;1720630;82;21598;-38
2021/06/07 05:20:47;;;;;;;5.28;2.58;;;;;;;24.00;43.73;99186.64;1668461;84;22352;-38
2021/06/07 05:23:17;;;;;;;2.85;2.40;;;;;;;24.01;43.66;99186.50;1706449;82;21901;-39
2021/06/07 05:25:44;;;;;;;4.00;2.50;;;;;;;24.06;43.55;99188.25;1694976;83;21369;-39
2021/06/07 05:28:13;;;;;;;3.85;2.35;;;;;;;24.13;43.42;99183.13;1683630;83;21099;-38
2021/06/07 05:30:41;;;;;;;5.05;2.50;;;;;;;24.20;43.34;99180.69;1712987;82;21875;-39
2021/06/07 05:33:08;;;;;;;4.40;2.30;;;;;;;24.26;43.22;99182.80;1712359;82;21110;-39
2021/06/07 05:35:40;;;;;;;4.40;2.52;;;;;;;24.32;43.11;99184.86;1715877;82;21015;-38
2021/06/07 05:38:08;;;;;;;2.95;2.30;;;;;;;24.38;42.96;99185.63;1709978;82;21207;-38
2021/06/07 05:40:36;;;;;;;3.15;2.25;;;;;;;24.43;42.95;99186.53;1713241;82;21041;-38
2021/06/07 05:43:03;;;;;;;6.22;2.30;;;;;;;24.48;42.76;99187.75;1765697;80;21620;-37
2021/06/07 05:45:30;;;;;;;2.45;2.10;;;;;;;24.53;42.58;99186.44;1762926;80;21046;-38
2021/06/07 05:47:59;;;;;;;2.80;2.30;;;;;;;24.59;42.37;99191.27;1740930;80;21022;-39
2021/06/07 05:50:29;;;;;;;5.08;2.40;;;;;;;24.64;42.35;99193.84;1749524;80;22265;-38
2021/06/07 05:52:56;;;;;;;2.62;2.42;;;;;;;24.66;42.28;99197.25;1761970;80;21062;-37
2021/06/07 05:55:28;;;;;;;5.12;2.30;;;;;;;24.71;42.35;99198.11;1755770;80;21036;-38
2021/06/07 05:57:58;;;;;;;3.90;2.30;;;;;;;24.63;42.43;99190.81;1756811;80;22120;-37
2021/06/07 06:00:27;;;;;;;4.17;2.30;;;;;;;24.59;42.48;99189.92;1755691;80;21625;-39
2021/06/07 06:02:54;;;;;;;4.47;2.40;;;;;;;24.59;42.34;99194.78;1741992;80;21815;-38
2021/06/07 06:05:21;;;;;;;4.33;2.45;;;;;;;24.63;42.24;99188.63;1744038;80;21307;-37
2021/06/07 06:07:47;;;;;;;4.05;2.20;;;;;;;24.64;42.37;99190.31;1756466;81;21027;-37
2021/06/07 06:10:17;;;;;;;5.30;2.45;;;;;;;24.56;42.54;99186.18;1747516;81;21055;-37
2021/06/07 06:12:46;;;;;;;2.80;2.00;;;;;;;24.51;42.53;99184.41;1731487;81;21043;-37
2021/06/07 06:15:16;;;;;;;3.05;2.02;;;;;;;24.51;42.41;99176.34;1747529;81;21042;-37
2021/06/07 06:17:42;;;;;;;7.40;2.30;;;;;;;24.56;42.21;99182.14;1732188;81;22285;-38
2021/06/07 06:20:10;;;;;;;3.50;2.17;;;;;;;24.60;42.38;99183.55;1752370;81;20981;-38
2021/06/07 06:22:37;;;;;;;2.30;1.87;;;;;;;24.57;42.53;99186.54;1737226;81;21732;-37
2021/06/07 06:25:07;;;;;;;5.50;2.42;;;;;;;24.49;42.72;99187.25;1748053;81;20986;-37
2021/06/07 06:27:35;;;;;;;6.17;4.03;;;;;;;24.44;43.02;99197.13;1755903;81;21117;-40
2021/06/07 06:30:05;;;;;;;3.70;3.40;;;;;;;24.35;43.54;99193.98;1739110;81;21015;-39
2021/06/07 06:32:31;;;;;;;6.40;3.35;;;;;;;24.23;43.91;99195.19;1748639;80;21372;-39
2021/06/07 06:34:58;;;;;;;7.72;3.42;;;;;;;24.10;44.27;99197.69;1750398;81;21052;-41
2021/06/07 06:37:25;;;;;;;3.87;3.37;;;;;;;24.04;44.35;99191.59;1736387;81;21050;-39
2021/06/07 06:39:51;;;;;;;4.97;2.87;;;;;;;24.08;44.17;99188.10;1746051;81;21730;-40
2021/06/07 06:42:18;;;;;;;3.42;3.12;;;;;;;24.17;44.04;99190.39;1746056;81;21020;-39
2021/06/07 06:44:45;;;;;;;5.03;2.90;;;;;;;24.24;43.84;99194.17;1759847;81;21002;-38
2021/06/07 06:47:11;;;;;;;7.60;3.47;;;;;;;24.33;43.61;99202.70;1748754;81;21040;-39
2021/06/07 06:49:39;;;;;;;4.42;3.08;;;;;;;24.41;43.48;99199.25;1753068;81;21058;-39
2021/06/07 06:52:06;;;;;;;4.03;2.92;;;;;;;24.50;43.32;99193.50;1723561;81;21353;-39
2021/06/07 06:54:33;;;;;;;3.08;2.70;;;;;;;24.57;43.22;99192.75;1741756;81;21098;-40
2021/06/07 06:57:01;;;;;;;4.95;2.70;;;;;;;24.65;43.09;99198.73;1751295;81;21079;-39
2021/06/07 06:59:28;;;;;;;2.62;2.30;;;;;;;24.71;42.92;99202.14;1693210;82;21090;-40
2021/06/07 07:01:56;;;;;;;5.87;2.62;;;;;;;24.79;42.79;99199.55;1746378;81;21368;-39
2021/06/07 07:04:23;;;;;;;3.40;2.70;;;;;;;24.85;42.63;99201.64;1747737;81;22305;-38
2021/06/07 07:06:50;;;;;;;2.75;2.55;;;;;;;24.92;42.53;99201.04;1748722;80;21110;-39
2021/06/07 07:09:16;;;;;;;3.33;2.40;;;;;;;24.98;42.41;99203.09;1747398;80;21062;-39
2021/06/07 07:11:43;;;;;;;2.65;2.45;;;;;;;25.07;42.26;99197.31;1750808;80;21070;-39
2021/06/07 07:14:10;;;;;;;6.87;2.30;;;;;;;25.13;42.13;99196.20;1749061;80;21079;-39
2021/06/07 07:16:38;;;;;;;4.30;2.45;;;;;;;25.19;42.03;99191.52;1745699;80;21846;-41
2021/06/07 07:19:04;;;;;;;3.15;2.17;;;;;;;25.27;41.89;99192.14;1737369;80;21471;-40
2021/06/07 07:21:31;;;;;;;4.25;2.50;;;;;;;25.33;41.79;99187.97;1702439;82;21090;-40
2021/06/07 07:23:58;;;;;;;3.00;2.65;;;;;;;25.38;41.72;99183.79;1704590;82;21042;-40
2021/06/07 07:26:25;;;;;;;5.30;2.85;;;;;;;25.45;41.62;99180.48;1685997;82;21479;-39
2021/06/07 07:28:52;;;;;;;3.58;2.20;;;;;;;25.49;41.52;99185.41;1696615;82;21164;-38
2021/06/07 07:31:19;;;;;;;3.00;2.22;;;;;;;25.54;41.45;99185.78;1697572;82;21094;-38
2021/06/07 07:33:48;;;;;;;2.92;2.45;;;;;;;25.59;41.36;99185.31;1700808;82;21023;-39
2021/06/07 07:36:16;;;;;;;3.30;2.45;;;;;;;25.64;41.26;99179.42;1702668;82;21057;-40
2021/06/07 07:38:43;;;;;;;4.22;2.30;;;;;;;25.68;41.23;99188.91;1697122;82;21088;-40
2021/06/07 07:41:11;;;;;;;2.75;2.42;;;;;;;25.71;41.17;99183.20;1699050;83;21150;-41
2021/06/07 07:43:39;;;;;;;3.15;2.62;;;;;;;25.75;41.09;99193.48;1693557;82;21053;-40
2021/06/07 07:46:06;;;;;;;3.92;2.35;;;;;;;25.79;41.05;99196.73;1699332;82;21058;-39
2021/06/07 07:48:34;;;;;;;5.78;2.45;;;;;;;25.83;40.96;99181.92;1692986;82;21633;-40
2021/06/07 07:51:01;;;;;;;5.70;2.90;;;;;;;25.89;40.99;99185.81;1689872;82;20950;-39
2021/06/07 07:53:28;;;;;;;20.43;12.93;;;;;;;25.87;40.76;99180.61;1671986;84;21267;-39
2021/06/07 07:55:57;;;;;;;9.78;6.40;;;;;;;25.84;40.89;99183.62;1688248;82;21043;-38
2021/06/07 07:58:24;;;;;;;16.93;5.60;;;;;;;25.81;40.86;99181.23;1694173;82;21586;-39
2021/06/07 08:00:52;;;;;;;7.67;4.62;;;;;;;25.80;40.92;99186.78;1685083;83;21067;-39
2021/06/07 08:03:19;;;;;;;8.23;3.95;;;;;;;25.75;40.33;99187.25;1690535;82;22093;-40
2021/06/07 08:05:46;;;;;;;8.15;4.15;;;;;;;25.59;40.33;99187.49;1701054;82;22561;-41
2021/06/07 08:08:13;;;;;;;14.43;4.08;;;;;;;25.43;40.69;99194.10;1692856;83;21102;-40
2021/06/07 08:10:42;;;;;;;12.10;3.45;;;;;;;25.35;41.44;99192.69;1703315;82;21355;-39
2021/06/07 08:13:08;;;;;;;10.72;3.05;;;;;;;25.27;41.13;99194.83;1712196;82;21053;-40
2021/06/07 08:15:35;;;;;;;9.60;2.50;;;;;;;25.19;40.89;99197.41;1714468;82;21075;-38
2021/06/07 08:18:02;;;;;;;11.80;2.55;;;;;;;25.06;40.75;99195.61;1693228;83;21303;-38
2021/06/07 08:20:29;;;;;;;4.45;1.95;;;;;;;24.97;41.18;99200.08;1702995;82;21113;-38
2021/06/07 08:22:56;;;;;;;4.17;2.52;;;;;;;24.91;41.20;99201.52;1711242;82;21086;-38
2021/06/07 08:25:23;;;;;;;6.87;2.75;;;;;;;24.88;41.33;99195.59;1709579;82;21467;-39
2021/06/07 08:27:51;;;;;;;6.25;2.87;;;;;;;24.83;41.40;99187.50;1701490;82;21107;-38
2021/06/07 08:30:20;;;;;;;6.47;3.17;;;;;;;24.82;41.55;99190.34;1711696;82;21126;-39
2021/06/07 08:32:47;;;;;;;6.87;3.05;;;;;;;24.84;41.68;99189.17;1712099;82;21334;-38
2021/06/07 08:35:14;;;;;;;11.60;3.37;;;;;;;24.88;41.70;99192.43;1702367;82;21112;-37
2021/06/07 08:37:40;;;;;;;5.97;2.52;;;;;;;24.92;41.68;99193.80;1713230;82;21634;-38
2021/06/07 08:40:12;;;;;;;11.38;3.45;;;;;;;24.94;41.32;99200.37;1709545;82;21158;-39
2021/06/07 08:42:41;;;;;;;7.85;3.42;;;;;;;24.87;41.63;99192.07;1707977;82;21815;-38
2021/06/07 08:45:14;;;;;;;6.33;2.83;;;;;;;24.88;41.72;99197.81;1710220;82;22339;-38
2021/06/07 08:47:41;;;;;;;5.78;3.75;;;;;;;24.96;42.01;99201.06;1712597;82;21063;-38
2021/06/07 08:50:10;;;;;;;7.37;2.90;;;;;;;25.00;42.03;99194.39;1704925;83;21173;-38
2021/06/07 08:52:37;;;;;;;7.00;3.20;;;;;;;25.04;42.17;99190.38;1706121;82;21094;-38
2021/06/07 08:55:06;;;;;;;9.03;3.58;;;;;;;25.05;42.17;99188.05;1712340;82;21799;-38
2021/06/07 08:57:40;;;;;;;5.85;3.37;;;;;;;25.00;42.44;99185.81;1712907;82;21094;-40
2021/06/07 09:00:11;;;;;;;8.80;3.77;;;;;;;25.00;42.45;99182.28;1710807;82;21061;-40
2021/06/07 09:02:39;;;;;;;8.70;3.12;;;;;;;25.08;42.20;99189.06;1709479;82;21556;-39
2021/06/07 09:05:08;;;;;;;6.35;3.00;;;;;;;25.12;41.97;99186.42;1711755;82;22198;-40
2021/06/07 09:07:53;;;;;;;4.60;2.62;;;;;;;25.11;41.88;99187.41;1727090;80;21139;-40
2021/06/07 09:10:21;;;;;;;5.03;2.33;;;;;;;25.09;41.34;99193.45;1730998;80;21066;-42
2021/06/07 09:12:58;;;;;;;5.05;2.47;;;;;;;25.05;41.61;99190.73;1713395;81;21055;-41
2021/06/07 09:15:38;;;;;;;5.00;2.52;;;;;;;24.99;41.59;99188.14;1702507;81;21047;-40
2021/06/07 09:18:09;;;;;;;6.17;2.50;;;;;;;24.95;41.78;99192.63;1743311;80;20983;-39
2021/06/07 09:20:37;;;;;;;21.80;13.83;;;;;;;24.88;41.44;99195.59;1748734;80;21071;-40
2021/06/07 09:23:15;;;;;;;11.95;6.78;;;;;;;24.79;41.73;99196.02;1748706;80;21519;-39
2021/06/07 09:25:47;;;;;;;9.73;4.90;;;;;;;24.79;42.08;99183.41;1724987;80;21137;-39
2021/06/07 09:28:19;;;;;;;6.72;3.90;;;;;;;24.87;42.08;99185.85;1745656;80;21036;-39
2021/06/07 09:30:57;;;;;;;6.35;3.42;;;;;;;24.92;42.21;99188.42;1746046;80;21038;-39
2021/06/07 09:33:37;;;;;;;4.17;3.37;;;;;;;24.96;41.95;99180.88;1746127;80;23796;-37
2021/06/07 09:36:29;;;;;;;10.90;3.40;;;;;;;24.99;42.09;99173.84;1746326;80;21022;-37
2021/06/07 09:39:00;;;;;;;4.20;3.37;;;;;;;25.07;41.98;99172.58;1741361;80;21088;-38
2021/06/07 09:41:30;;;;;;;4.97;3.17;;;;;;;25.17;41.84;99163.92;1727429;80;21063;-38
2021/06/07 09:44:00;;;;;;;6.15;3.33;;;;;;;25.29;41.75;99166.41;1731700;80;21024;-38
2021/06/07 09:46:29;;;;;;;4.78;3.10;;;;;;;25.41;41.59;99162.45;1745737;80;21797;-38
2021/06/07 09:49:15;;;;;;;4.53;3.40;;;;;;;25.51;41.46;99158.31;1742588;80;21658;-38
2021/06/07 09:51:58;;;;;;;6.85;3.22;;;;;;;25.62;41.38;99162.58;1744884;80;21117;-37
2021/06/07 09:54:26;;;;;;;3.75;2.65;;;;;;;25.72;41.21;99151.19;1739511;80;21445;-38
2021/06/07 09:57:01;;;;;;;4.40;3.22;;;;;;;25.81;41.05;99156.98;1732982;80;21632;-38
2021/06/07 09:59:36;;;;;;;8.00;2.90;;;;;;;25.89;40.95;99152.98;1700342;80;21012;-38
2021/06/07 10:02:14;;;;;;;;;;;;;;;25.97;40.83;99145.97;1733890;80;22186;-37
2021/06/07 10:04:59;;;;;;;3.45;2.45;;;;;;;26.05;40.76;99143.31;1739896;80;20207;-38
2021/06/07 10:07:26;;;;;;;3.98;2.62;;;;;;;26.10;40.57;99138.28;1740189;80;21767;-37
2021/06/07 10:10:20;;;;;;;4.22;2.77;;;;;;;26.16;40.60;99129.55;1748299;80;21584;-37
2021/06/07 10:12:47;;;;;;;3.52;2.75;;;;;;;26.22;40.41;99131.58;1747837;80;21115;-37
2021/06/07 10:15:35;;;;;;;4.78;2.10;;;;;;;26.27;40.26;99125.70;1741647;80;21129;-39
2021/06/07 10:18:05;;;;;;;2.98;2.10;;;;;;;26.31;39.76;99119.83;1748215;80;21145;-41
2021/06/07 10:23:00;;;;;;;5.55;1.80;;;;;;;26.07;39.54;99115.69;1729460;80;21121;-37
2021/06/07 10:25:27;;;;;;;3.52;1.70;;;;;;;25.90;38.64;99128.22;1738185;80;22795;-38
2021/06/07 10:27:53;;;;;;;3.62;1.60;;;;;;;25.72;38.65;99118.86;1731448;80;21083;-38
2021/06/07 10:30:23;;;;;;;2.25;1.35;;;;;;;25.56;38.62;99113.72;1733981;80;21407;-39
2021/06/07 10:32:51;;;;;;;2.77;1.45;;;;;;;25.48;38.85;99106.94;1725881;80;21450;-39
2021/06/07 10:35:36;;;;;;;1.37;1.27;;;;;;;25.45;39.32;99106.41;1738450;80;21145;-38
2021/06/07 10:38:10;;;;;;;2.00;1.45;;;;;;;25.41;38.65;99096.47;1741210;80;21827;-38
2021/06/07 10:40:42;;;;;;;15.20;12.93;;;;;;;25.32;38.79;99105.51;1733072;80;21023;-37
2021/06/07 10:43:11;;;;;;;19.48;7.62;;;;;;;25.25;38.67;99101.22;1749337;80;21051;-37
2021/06/07 10:45:40;;;;;;;8.33;4.60;;;;;;;25.27;38.73;99091.64;1745245;80;21121;-37
2021/06/07 10:48:09;;;;;;;5.20;2.90;;;;;;;25.33;38.84;99099.10;1748345;80;22294;-37
2021/06/07 10:50:45;;;;;;;4.90;2.70;;;;;;;25.40;38.82;99090.72;1744291;80;21146;-37
2021/06/07 10:53:25;;;;;;;2.65;2.00;;;;;;;25.46;38.71;99095.99;1743679;80;21572;-40
2021/06/07 10:56:06;;;;;;;3.25;1.77;;;;;;;25.50;38.52;99095.52;1739965;80;21480;-38
2021/06/07 10:58:32;;;;;;;3.10;1.60;;;;;;;25.55;38.74;99093.20;1735178;80;21095;-38
2021/06/07 11:01:01;;;;;;;1.52;1.42;;;;;;;25.61;38.74;99089.52;1725928;80;21065;-39
2021/06/07 11:03:32;;;;;;;4.15;1.50;;;;;;;25.65;38.76;99108.39;1737428;80;21115;-39
2021/06/07 11:06:03;;;;;;;3.65;1.47;;;;;;;25.68;38.76;99088.70;1749566;80;21038;-38
2021/06/07 11:08:33;;;;;;;3.72;1.32;;;;;;;25.72;38.81;99096.82;1733961;81;21039;-38
2021/06/07 11:11:17;;;;;;;3.27;1.70;;;;;;;25.76;38.11;99089.25;1754472;80;21078;-37
2021/06/07 11:14:00;;;;;;;3.15;1.42;;;;;;;25.77;37.94;99090.92;1733233;80;21078;-38
2021/06/07 11:16:40;;;;;;;3.50;1.30;;;;;;;25.76;37.86;99082.00;1729346;81;21049;-39
2021/06/07 11:19:11;;;;;;;1.95;1.70;;;;;;;25.75;38.11;99078.95;1738489;80;21298;-39
2021/06/07 11:21:43;;;;;;;3.20;1.50;;;;;;;25.75;38.50;99075.42;1732976;80;21520;-39
2021/06/07 11:24:32;;;;;;;3.62;1.20;;;;;;;25.77;38.74;99066.67;1730211;80;21072;-38
2021/06/07 11:27:02;;;;;;;3.65;1.50;;;;;;;25.81;38.70;99058.63;1704618;81;21552;-39
2021/06/07 11:29:29;;;;;;;20.12;11.20;;;;;;;25.81;38.75;99062.66;1732363;80;21177;-40
2021/06/07 11:31:59;;;;;;;9.93;8.85;;;;;;;25.86;38.99;99059.49;1738581;80;21055;-40
2021/06/07 11:34:46;;;;;;;14.07;7.28;;;;;;;25.91;38.87;99063.37;1718045;81;21107;-38
2021/06/07 11:37:34;;;;;;;11.50;6.25;;;;;;;25.99;38.86;99056.34;1734241;80;21007;-40
2021/06/07 11:40:06;;;;;;;9.78;5.90;;;;;;;26.08;38.86;99054.87;1730235;81;21054;-40
2021/06/07 11:42:33;;;;;;;7.22;5.78;;;;;;;26.18;38.85;99052.55;1735761;80;21282;-38
2021/06/07 11:45:06;;;;;;;9.03;5.83;;;;;;;26.25;38.84;99046.31;1724743;80;21727;-39
2021/06/07 11:47:45;;;;;;;6.70;5.25;;;;;;;26.33;38.84;99046.33;1729421;81;21051;-39